createdAt,value
2019-04-07T00:01:41.166Z,29.27
2019-04-07T00:04:10.885Z,30.40
2019-04-07T00:06:40.554Z,29.30
2019-04-07T00:09:09.756Z,32.40
2019-04-07T00:11:38.657Z,29.80
2019-04-07T00:14:09.340Z,30.50
2019-04-07T00:16:39.103Z,29.67
2019-04-07T00:19:08.959Z,31.70
2019-04-07T00:21:37.972Z,33.23
2019-04-07T00:24:07.158Z,32.67
2019-04-07T00:26:36.676Z,33.33
2019-04-07T00:29:05.791Z,33.43
2019-04-07T00:31:35.213Z,33.73
2019-04-07T00:34:04.582Z,35.77
2019-04-07T00:36:34.144Z,31.87
2019-04-07T00:39:04.577Z,35.33
2019-04-07T00:41:33.441Z,34.67
2019-04-07T00:44:02.471Z,37.63
2019-04-07T00:46:33.165Z,37.87
2019-04-07T00:49:02.131Z,32.60
2019-04-07T00:51:31.196Z,39.87
2019-04-07T00:54:00.669Z,33.63
2019-04-07T00:56:30.153Z,35.77
2019-04-07T00:58:59.097Z,39.93
2019-04-07T01:01:29.591Z,42.00
2019-04-07T01:03:59.781Z,42.67
2019-04-07T01:06:29.485Z,40.10
2019-04-07T01:08:59.106Z,36.00
2019-04-07T01:11:28.865Z,37.20
2019-04-07T01:13:58.189Z,41.83
2019-04-07T01:16:27.409Z,40.93
2019-04-07T01:18:57.001Z,40.27
2019-04-07T01:21:31.689Z,42.10
2019-04-07T01:24:00.709Z,44.80
2019-04-07T01:26:29.947Z,46.10
2019-04-07T01:28:59.242Z,42.00
2019-04-07T01:31:28.911Z,40.97
2019-04-07T01:33:58.673Z,41.50
2019-04-07T01:36:29.253Z,42.47
2019-04-07T01:38:58.720Z,37.83
2019-04-07T01:41:47.223Z,39.93
2019-04-07T01:44:21.778Z,38.70
2019-04-07T01:47:09.963Z,40.13
2019-04-07T01:49:48.645Z,40.27
2019-04-07T01:52:32.799Z,39.87
2019-04-07T01:55:13.125Z,45.27
2019-04-07T01:57:59.875Z,40.63
2019-04-07T02:00:46.968Z,44.50
2019-04-07T02:03:25.354Z,39.37
2019-04-07T02:06:22.559Z,41.20
2019-04-07T02:09:09.470Z,43.60
2019-04-07T02:11:46.311Z,40.00
2019-04-07T02:14:26.998Z,40.33
2019-04-07T02:17:17.298Z,39.27
2019-04-07T02:20:05.136Z,41.13
2019-04-07T02:23:06.313Z,43.60
2019-04-07T02:25:52.699Z,44.33
2019-04-07T02:28:36.064Z,45.17
2019-04-07T02:31:15.307Z,40.97
2019-04-07T02:34:07.526Z,42.53
2019-04-07T02:37:07.998Z,45.67
2019-04-07T02:39:56.766Z,43.20
2019-04-07T02:42:43.900Z,43.50
2019-04-07T02:45:41.327Z,42.27
2019-04-07T02:48:45.136Z,43.70
2019-04-07T02:51:43.435Z,48.63
2019-04-07T02:54:33.274Z,44.30
2019-04-07T02:57:19.013Z,43.80
2019-04-07T02:59:57.844Z,42.93
2019-04-07T03:02:51.989Z,42.17
2019-04-07T03:05:34.816Z,42.40
2019-04-07T03:08:20.484Z,49.00
2019-04-07T03:11:07.538Z,44.77
2019-04-07T03:13:59.144Z,46.03
2019-04-07T03:16:52.858Z,45.97
2019-04-07T03:19:41.728Z,45.37
2019-04-07T03:22:34.043Z,44.03
2019-04-07T03:25:18.713Z,46.47
2019-04-07T03:28:12.720Z,44.90
2019-04-07T03:31:02.160Z,44.93
2019-04-07T03:33:59.620Z,44.40
2019-04-07T03:37:12.581Z,46.67
2019-04-07T03:39:26.805Z,42.30
2019-04-07T03:42:14.533Z,42.67
2019-04-07T03:45:02.371Z,42.03
2019-04-07T03:47:50.439Z,44.13
2019-04-07T03:50:34.904Z,47.53
2019-04-07T03:53:24.553Z,46.57
2019-04-07T03:56:21.951Z,50.03
2019-04-07T03:59:07.872Z,46.00
2019-04-07T04:01:53.925Z,47.73
2019-04-07T04:04:31.529Z,46.23
2019-04-07T04:07:18.687Z,50.27
2019-04-07T04:09:59.781Z,53.23
2019-04-07T04:12:37.610Z,52.90
2019-04-07T04:15:22.105Z,47.47
2019-04-07T04:17:51.840Z,53.50
2019-04-07T04:20:21.498Z,55.67
2019-04-07T04:22:52.494Z,60.27
2019-04-07T04:25:21.613Z,52.20
2019-04-07T04:27:50.896Z,51.93
2019-04-07T04:30:21.178Z,54.57
2019-04-07T04:32:52.134Z,60.67
2019-04-07T04:35:21.122Z,62.33
2019-04-07T04:37:53.448Z,63.57
2019-04-07T04:40:22.253Z,179.57
2019-04-07T04:42:53.806Z,66.30
2019-04-07T04:45:24.499Z,63.17
2019-04-07T04:47:53.868Z,64.97
2019-04-07T04:50:23.682Z,68.87
2019-04-07T04:52:52.655Z,63.90
2019-04-07T04:55:22.143Z,72.07
2019-04-07T04:57:51.260Z,67.23
2019-04-07T05:00:20.316Z,60.53
2019-04-07T05:02:49.541Z,59.63
2019-04-07T05:05:18.632Z,59.43
2019-04-07T05:07:57.156Z,60.03
2019-04-07T05:10:17.931Z,55.73
2019-04-07T05:12:48.257Z,59.90
2019-04-07T05:15:17.571Z,48.27
2019-04-07T05:17:47.453Z,54.30
2019-04-07T05:20:17.217Z,42.33
2019-04-07T05:22:46.267Z,47.93
2019-04-07T05:25:15.622Z,45.60
2019-04-07T05:27:47.032Z,43.43
2019-04-07T05:30:16.791Z,44.23
2019-04-07T05:32:45.844Z,39.53
2019-04-07T05:35:15.350Z,50.27
2019-04-07T05:37:44.680Z,46.57
2019-04-07T05:40:14.450Z,42.47
2019-04-07T05:42:43.353Z,42.73
2019-04-07T05:45:12.437Z,43.77
2019-04-07T05:47:47.334Z,43.87
2019-04-07T05:50:13.326Z,43.57
2019-04-07T05:52:42.292Z,35.67
2019-04-07T05:55:12.561Z,41.87
2019-04-07T05:57:41.459Z,36.83
2019-04-07T06:00:14.236Z,37.90
2019-04-07T06:02:41.742Z,38.57
2019-04-07T06:05:11.060Z,37.57
2019-04-07T06:07:40.106Z,38.07
2019-04-07T06:10:09.996Z,40.43
2019-04-07T06:12:41.545Z,39.60
2019-04-07T06:15:09.775Z,40.27
2019-04-07T06:17:39.102Z,40.43
2019-04-07T06:20:12.028Z,38.00
2019-04-07T06:22:38.872Z,39.67
2019-04-07T06:25:08.727Z,37.53
2019-04-07T06:27:38.368Z,37.43
2019-04-07T06:30:08.469Z,40.23
2019-04-07T06:32:38.507Z,35.57
2019-04-07T06:35:08.496Z,37.93
2019-04-07T06:37:37.470Z,38.93
2019-04-07T06:40:06.531Z,39.33
2019-04-07T06:42:35.535Z,39.97
2019-04-07T06:45:05.235Z,39.57
2019-04-07T06:47:46.591Z,40.70
2019-04-07T06:50:28.551Z,40.70
2019-04-07T06:53:17.031Z,40.37
2019-04-07T06:56:01.320Z,40.77
2019-04-07T06:58:50.610Z,38.30
2019-04-07T07:01:34.868Z,37.67
2019-04-07T07:04:25.638Z,38.83
2019-04-07T07:07:11.316Z,38.00
2019-04-07T07:10:06.300Z,38.63
2019-04-07T07:12:59.124Z,36.00
2019-04-07T07:15:44.762Z,36.47
2019-04-07T07:18:29.495Z,37.93
2019-04-07T07:21:36.522Z,37.93
2019-04-07T07:24:03.700Z,35.43
2019-04-07T07:26:35.086Z,34.17
2019-04-07T07:29:06.223Z,34.23
2019-04-07T07:31:35.981Z,35.57
2019-04-07T07:34:09.287Z,33.87
2019-04-07T07:36:39.815Z,34.57
2019-04-07T07:39:11.757Z,32.83
2019-04-07T07:41:42.245Z,35.57
2019-04-07T07:44:11.112Z,33.40
2019-04-07T07:46:39.889Z,33.33
2019-04-07T07:49:10.349Z,32.77
2019-04-07T07:51:39.827Z,33.90
2019-04-07T07:54:10.039Z,29.87
2019-04-07T07:56:43.257Z,31.93
2019-04-07T07:59:11.226Z,30.73
2019-04-07T08:01:44.270Z,32.17
2019-04-07T08:04:12.284Z,29.53
2019-04-07T08:06:41.134Z,28.93
2019-04-07T08:09:15.093Z,28.67
2019-04-07T08:11:40.585Z,31.73
2019-04-07T08:14:10.059Z,29.87
2019-04-07T08:16:39.131Z,23.97
2019-04-07T08:19:09.972Z,18.13
2019-04-07T08:21:39.128Z,18.90
2019-04-07T08:24:10.177Z,14.83
2019-04-07T08:26:54.131Z,14.17
2019-04-07T08:29:23.028Z,13.93
2019-04-07T08:31:55.185Z,13.47
2019-04-07T08:34:23.164Z,13.60
2019-04-07T08:36:52.947Z,14.57
2019-04-07T08:39:25.633Z,12.47
2019-04-07T08:41:53.325Z,14.03
2019-04-07T08:44:25.460Z,13.37
2019-04-07T08:46:54.027Z,12.50
2019-04-07T08:49:24.165Z,12.13
2019-04-07T08:51:54.915Z,12.27
2019-04-07T08:54:23.881Z,13.30
2019-04-07T08:56:56.299Z,13.10
2019-04-07T08:59:23.941Z,13.20
2019-04-07T09:01:54.251Z,12.77
2019-04-07T09:04:24.143Z,13.03
2019-04-07T09:06:54.855Z,13.13
2019-04-07T09:09:32.657Z,12.70
2019-04-07T09:11:57.022Z,13.13
2019-04-07T09:14:25.208Z,15.77
2019-04-07T09:17:30.671Z,13.20
2019-04-07T09:20:10.397Z,14.37
2019-04-07T09:22:58.119Z,14.63
2019-04-07T09:25:46.675Z,15.47
2019-04-07T09:28:31.730Z,14.40
2019-04-07T09:31:34.993Z,13.90
2019-04-07T09:34:22.281Z,14.23
2019-04-07T09:37:13.875Z,16.03
2019-04-07T09:40:06.718Z,16.13
2019-04-07T09:43:07.433Z,13.10
2019-04-07T09:45:55.411Z,15.00
2019-04-07T09:48:43.211Z,12.00
2019-04-07T09:51:37.662Z,20.57
2019-04-07T09:54:21.410Z,12.73
2019-04-07T09:57:10.773Z,14.77
2019-04-07T10:00:02.298Z,12.70
2019-04-07T10:02:56.212Z,13.30
2019-04-07T10:05:43.704Z,11.80
2019-04-07T10:08:31.619Z,12.10
2019-04-07T10:11:18.418Z,12.07
2019-04-07T10:14:12.648Z,12.13
2019-04-07T10:16:50.702Z,12.73
2019-04-07T10:19:41.304Z,13.67
2019-04-07T10:22:29.825Z,13.23
2019-04-07T10:25:14.471Z,15.40
2019-04-07T10:28:11.608Z,14.30
2019-04-07T10:31:11.274Z,16.57
2019-04-07T10:33:49.521Z,16.73
2019-04-07T10:36:36.263Z,16.20
2019-04-07T10:39:21.724Z,13.87
2019-04-07T10:42:08.748Z,14.57
2019-04-07T10:45:05.941Z,15.27
2019-04-07T10:47:56.775Z,15.37
2019-04-07T10:50:39.254Z,15.03
2019-04-07T10:53:20.955Z,15.70
2019-04-07T10:56:17.650Z,12.63
2019-04-07T10:59:05.551Z,17.07
2019-04-07T11:02:10.138Z,19.40
2019-04-07T11:05:10.097Z,17.43
2019-04-07T11:07:57.030Z,17.93
2019-04-07T11:10:47.535Z,17.20
2019-04-07T11:13:51.661Z,18.70
2019-04-07T11:16:56.096Z,21.67
2019-04-07T11:19:50.068Z,23.73
2019-04-07T11:22:37.032Z,19.57
2019-04-07T11:25:38.474Z,20.20
2019-04-07T11:28:31.819Z,23.00
2019-04-07T11:31:32.214Z,25.23
2019-04-07T11:34:19.390Z,22.97
2019-04-07T11:37:09.886Z,23.00
2019-04-07T11:40:02.553Z,23.63
2019-04-07T11:42:39.369Z,25.87
2019-04-07T11:45:53.347Z,22.57
2019-04-07T11:48:25.817Z,22.77
2019-04-07T11:51:22.746Z,24.90
2019-04-07T11:54:10.331Z,21.53
2019-04-07T11:56:59.706Z,24.10
2019-04-07T11:59:51.226Z,25.63
2019-04-07T12:02:43.339Z,23.13
2019-04-07T12:05:31.056Z,21.23
2019-04-07T12:08:36.324Z,20.33
2019-04-07T12:11:38.744Z,28.63
2019-04-07T12:14:32.243Z,18.70
2019-04-07T12:17:30.054Z,27.90
2019-04-07T12:20:15.171Z,21.60
2019-04-07T12:23:06.348Z,26.83
2019-04-07T12:26:04.306Z,21.83
2019-04-07T12:29:08.010Z,22.93
2019-04-07T12:32:02.362Z,25.10
2019-04-07T12:34:57.057Z,24.87
2019-04-07T12:37:50.689Z,22.33
2019-04-07T12:40:48.630Z,23.10
2019-04-07T12:43:45.708Z,18.73
2019-04-07T12:46:30.050Z,22.60
2019-04-07T12:49:24.276Z,22.50
2019-04-07T12:52:11.759Z,26.53
2019-04-07T12:55:05.885Z,23.87
2019-04-07T12:57:54.367Z,22.77
2019-04-07T13:00:53.108Z,21.80
2019-04-07T13:03:28.882Z,21.60
2019-04-07T13:06:14.605Z,22.53
2019-04-07T13:09:01.702Z,20.80
2019-04-07T13:11:39.488Z,25.20
2019-04-07T13:14:24.544Z,23.43
2019-04-07T13:17:05.375Z,17.60
2019-04-07T13:19:58.637Z,21.63
2019-04-07T13:22:53.129Z,22.20
2019-04-07T13:26:00.650Z,23.03
2019-04-07T13:28:48.905Z,22.07
2019-04-07T13:31:37.287Z,21.17
2019-04-07T13:34:24.477Z,21.70
2019-04-07T13:37:09.154Z,18.80
2019-04-07T13:40:00.086Z,20.10
2019-04-07T13:42:52.087Z,21.07
2019-04-07T13:45:44.535Z,19.87
2019-04-07T13:48:32.351Z,21.40
2019-04-07T13:51:21.455Z,23.93
2019-04-07T13:54:18.957Z,21.37
2019-04-07T13:57:07.650Z,18.53
2019-04-07T13:59:50.033Z,19.43
2019-04-07T14:02:41.037Z,20.80
2019-04-07T14:05:38.948Z,20.37
2019-04-07T14:08:30.717Z,20.87
2019-04-07T14:11:24.966Z,18.70
2019-04-07T14:14:25.587Z,22.20
2019-04-07T14:17:16.747Z,25.17
2019-04-07T14:20:04.944Z,20.90
2019-04-07T14:22:59.149Z,20.00
2019-04-07T14:25:47.439Z,20.93
2019-04-07T14:28:26.615Z,24.37
2019-04-07T14:31:29.954Z,23.30
2019-04-07T14:34:27.263Z,21.97
2019-04-07T14:37:05.395Z,25.17
2019-04-07T14:39:43.383Z,20.57
2019-04-07T14:42:24.076Z,20.87
2019-04-07T14:45:02.024Z,20.13
2019-04-07T14:47:48.575Z,21.60
2019-04-07T14:50:42.921Z,27.27
2019-04-07T14:53:33.715Z,21.20
2019-04-07T14:56:11.034Z,20.63
2019-04-07T14:59:10.434Z,20.73
2019-04-07T15:01:54.368Z,21.57
2019-04-07T15:04:26.702Z,19.73
2019-04-07T15:07:14.089Z,21.87
2019-04-07T15:09:53.533Z,22.67
2019-04-07T15:12:31.741Z,20.40
2019-04-07T15:15:05.543Z,22.10
2019-04-07T15:17:31.847Z,22.43
2019-04-07T15:20:01.429Z,22.23
2019-04-07T15:22:31.316Z,22.67
2019-04-07T15:25:01.454Z,20.63
2019-04-07T15:27:31.526Z,20.40
2019-04-07T15:30:04.301Z,26.47
2019-04-07T15:32:34.570Z,22.67
2019-04-07T15:35:04.988Z,16.00
2019-04-07T15:37:34.669Z,19.17
2019-04-07T15:40:06.064Z,21.20
2019-04-07T15:42:40.154Z,25.47
2019-04-07T15:45:06.408Z,25.07
2019-04-07T15:47:36.006Z,29.27
2019-04-07T15:50:05.410Z,21.50
2019-04-07T15:52:34.767Z,25.87
2019-04-07T15:55:03.947Z,22.93
2019-04-07T15:57:36.100Z,30.23
2019-04-07T16:00:05.616Z,24.20
2019-04-07T16:02:34.614Z,26.47
2019-04-07T16:05:03.758Z,31.53
2019-04-07T16:07:32.818Z,24.33
2019-04-07T16:10:01.977Z,21.87
2019-04-07T16:12:42.845Z,26.33
2019-04-07T16:15:04.172Z,23.30
2019-04-07T16:17:34.699Z,23.70
2019-04-07T16:20:04.424Z,24.63
2019-04-07T16:22:33.646Z,23.10
2019-04-07T16:25:02.710Z,27.70
2019-04-07T16:27:32.997Z,23.97
2019-04-07T16:30:07.427Z,24.90
2019-04-07T16:32:37.689Z,22.93
2019-04-07T16:35:07.356Z,26.43
2019-04-07T16:37:37.565Z,27.70
2019-04-07T16:40:13.086Z,23.77
2019-04-07T16:43:00.230Z,24.63
2019-04-07T16:45:17.791Z,26.23
2019-04-07T16:47:47.910Z,25.03
2019-04-07T16:50:18.865Z,25.97
2019-04-07T16:52:53.265Z,26.57
2019-04-07T16:55:48.986Z,24.57
2019-04-07T16:58:16.402Z,25.23
2019-04-07T17:00:45.494Z,23.13
2019-04-07T17:03:15.277Z,24.27
2019-04-07T17:05:45.143Z,24.37
2019-04-07T17:08:18.567Z,24.10
2019-04-07T17:10:46.487Z,31.30
2019-04-07T17:13:20.478Z,26.30
2019-04-07T17:15:47.714Z,27.47
2019-04-07T17:18:36.653Z,29.17
2019-04-07T17:21:09.480Z,24.40
2019-04-07T17:23:39.721Z,25.17
2019-04-07T17:26:09.494Z,25.33
2019-04-07T17:28:38.927Z,24.60
2019-04-07T17:31:08.991Z,25.83
2019-04-07T17:33:39.389Z,24.07
2019-04-07T17:36:09.535Z,24.83
2019-04-07T17:38:56.596Z,24.77
2019-04-07T17:41:25.768Z,23.47
2019-04-07T17:44:24.490Z,27.53
2019-04-07T17:47:23.301Z,26.00
2019-04-07T17:50:20.675Z,27.43
2019-04-07T17:53:13.256Z,28.27
2019-04-07T17:56:10.877Z,30.30
2019-04-07T17:58:49.239Z,27.10
2019-04-07T18:01:35.867Z,28.57
2019-04-07T18:04:18.823Z,31.20
2019-04-07T18:07:06.224Z,29.90
2019-04-07T18:09:53.315Z,33.37
2019-04-07T18:12:40.106Z,38.07
2019-04-07T18:15:27.398Z,25.80
2019-04-07T18:18:31.591Z,32.40
2019-04-07T18:21:19.262Z,30.70
2019-04-07T18:24:16.797Z,25.60
2019-04-07T18:27:10.078Z,25.90
2019-04-07T18:29:51.432Z,28.40
2019-04-07T18:32:41.876Z,32.80
2019-04-07T18:35:22.661Z,30.30
2019-04-07T18:38:12.077Z,25.47
2019-04-07T18:40:58.308Z,27.47
2019-04-07T18:44:06.719Z,27.10
2019-04-07T18:46:55.098Z,31.93
2019-04-07T18:49:57.114Z,29.40
2019-04-07T18:52:46.812Z,29.20
2019-04-07T18:55:26.172Z,27.97
2019-04-07T18:58:20.394Z,26.93
2019-04-07T19:01:08.819Z,27.07
2019-04-07T19:04:10.022Z,32.57
2019-04-07T19:07:07.878Z,30.30
2019-04-07T19:10:06.490Z,25.80
2019-04-07T19:13:03.927Z,28.43
2019-04-07T19:15:47.544Z,27.63
2019-04-07T19:18:45.180Z,31.27
2019-04-07T19:21:47.556Z,27.57
2019-04-07T19:24:37.850Z,23.73
2019-04-07T19:27:22.082Z,30.37
2019-04-07T19:30:26.859Z,27.40
2019-04-07T19:33:27.067Z,32.77
2019-04-07T19:36:16.793Z,33.00
2019-04-07T19:39:03.051Z,26.47
2019-04-07T19:41:42.449Z,30.37
2019-04-07T19:44:37.150Z,29.00
2019-04-07T19:47:14.324Z,27.83
2019-04-07T19:50:01.699Z,25.47
2019-04-07T19:52:50.449Z,29.30
2019-04-07T19:55:41.677Z,27.27
2019-04-07T19:58:32.625Z,27.57
2019-04-07T20:01:08.427Z,32.23
2019-04-07T20:03:59.842Z,29.87
2019-04-07T20:06:49.221Z,30.87
2019-04-07T20:09:27.801Z,27.20
2019-04-07T20:12:16.337Z,30.33
2019-04-07T20:15:06.917Z,28.63
2019-04-07T20:17:54.986Z,29.10
2019-04-07T20:20:51.244Z,30.90
2019-04-07T20:23:46.836Z,27.83
2019-04-07T20:26:43.544Z,25.33
2019-04-07T20:29:45.990Z,27.70
2019-04-07T20:32:37.403Z,25.97
2019-04-07T20:35:24.705Z,29.17
2019-04-07T20:38:16.880Z,28.23
2019-04-07T20:41:21.770Z,28.63
2019-04-07T20:44:09.099Z,23.17
2019-04-07T20:46:59.361Z,23.93
2019-04-07T20:49:47.807Z,27.57
2019-04-07T20:52:38.364Z,29.70
2019-04-07T20:55:25.737Z,27.60
2019-04-07T20:58:47.564Z,27.53
2019-04-07T21:01:35.372Z,23.73
2019-04-07T21:04:33.104Z,21.60
2019-04-07T21:07:21.079Z,20.90
2019-04-07T21:10:13.113Z,16.50
2019-04-07T21:12:58.062Z,25.03
2019-04-07T21:15:57.626Z,22.07
2019-04-07T21:18:40.340Z,21.50
2019-04-07T21:21:34.894Z,21.60
2019-04-07T21:24:29.274Z,24.83
2019-04-07T21:27:12.158Z,24.27
2019-04-07T21:29:55.804Z,22.13
2019-04-07T21:32:52.590Z,29.97
2019-04-07T21:35:43.711Z,24.20
2019-04-07T21:38:29.751Z,23.50
2019-04-07T21:41:36.561Z,25.37
2019-04-07T21:44:34.622Z,20.77
2019-04-07T21:47:26.603Z,24.83
2019-04-07T21:50:28.996Z,33.03
2019-04-07T21:53:25.722Z,25.37
2019-04-07T21:56:00.157Z,25.90
2019-04-07T21:58:57.987Z,21.10
2019-04-07T22:01:39.889Z,25.73
2019-04-07T22:04:25.315Z,20.13
2019-04-07T22:07:15.315Z,20.93
2019-04-07T22:09:56.705Z,30.23
2019-04-07T22:12:28.639Z,22.00
2019-04-07T22:14:56.149Z,22.63
2019-04-07T22:17:25.131Z,25.10
2019-04-07T22:19:54.305Z,39.67
2019-04-07T22:22:24.146Z,30.47
2019-04-07T22:24:53.889Z,24.23
2019-04-07T22:27:26.043Z,23.90
2019-04-07T22:29:53.485Z,25.47
2019-04-07T22:32:24.359Z,21.57
2019-04-07T22:34:53.376Z,25.43
2019-04-07T22:37:23.504Z,23.77
2019-04-07T22:39:53.338Z,22.83
2019-04-07T22:42:22.473Z,24.87
2019-04-07T22:44:54.169Z,23.33
2019-04-07T22:47:23.656Z,22.10
2019-04-07T22:49:52.765Z,20.73
2019-04-07T22:52:22.531Z,23.30
2019-04-07T22:54:52.128Z,19.83
2019-04-07T22:57:21.819Z,22.30
2019-04-07T22:59:51.430Z,20.37
2019-04-07T23:02:20.465Z,21.67
2019-04-07T23:04:50.266Z,22.03
2019-04-07T23:07:20.176Z,20.50
2019-04-07T23:09:49.645Z,24.00
2019-04-07T23:12:18.939Z,20.67
2019-04-07T23:14:49.722Z,21.57
2019-04-07T23:17:19.444Z,22.10
2019-04-07T23:19:48.622Z,20.60
2019-04-07T23:22:18.062Z,19.40
2019-04-07T23:24:50.875Z,26.30
2019-04-07T23:27:20.078Z,21.80
2019-04-07T23:29:49.109Z,20.57
2019-04-07T23:32:19.119Z,19.30
2019-04-07T23:34:48.415Z,23.63
2019-04-07T23:37:17.372Z,21.17
2019-04-07T23:39:47.247Z,20.83
2019-04-07T23:42:17.393Z,20.97
2019-04-07T23:44:46.233Z,23.67
2019-04-07T23:47:15.347Z,26.67
2019-04-07T23:49:44.739Z,21.43
2019-04-07T23:52:14.543Z,22.80
2019-04-07T23:54:43.606Z,27.27
2019-04-07T23:57:13.432Z,21.70
2019-04-07T23:59:42.619Z,24.43
